createdAt,value
2023-05-17T00:01:11.913Z,102147.50
2023-05-17T00:03:39.658Z,102150.59
2023-05-17T00:06:07.698Z,102145.66
2023-05-17T00:08:35.544Z,102145.63
2023-05-17T00:11:03.533Z,102150.09
2023-05-17T00:13:32.638Z,102145.28
2023-05-17T00:16:00.492Z,102140.16
2023-05-17T00:18:28.275Z,102145.81
2023-05-17T00:20:56.226Z,102141.44
2023-05-17T00:23:23.960Z,102141.31
2023-05-17T00:25:51.869Z,102143.78
2023-05-17T00:28:19.610Z,102143.78
2023-05-17T00:30:48.689Z,102137.88
2023-05-17T00:33:16.479Z,102143.03
2023-05-17T00:35:45.291Z,102144.53
2023-05-17T00:38:13.095Z,102142.16
2023-05-17T00:40:40.817Z,102144.81
2023-05-17T00:43:08.559Z,102139.38
2023-05-17T00:45:36.335Z,102151.09
2023-05-17T00:48:06.377Z,102142.78
2023-05-17T00:50:34.654Z,102151.88
2023-05-17T00:53:02.531Z,102145.88
2023-05-17T00:55:31.475Z,102138.00
2023-05-17T00:57:59.265Z,102134.81
2023-05-17T01:00:27.059Z,102142.56
2023-05-17T01:02:54.867Z,102133.84
2023-05-17T01:05:24.204Z,102135.28
2023-05-17T01:07:51.910Z,102136.28
2023-05-17T01:10:19.744Z,102140.69
2023-05-17T01:12:57.049Z,102144.19
2023-05-17T01:15:29.463Z,102145.63
2023-05-17T01:18:06.378Z,102140.34
2023-05-17T01:20:39.110Z,102148.00
2023-05-17T01:23:25.301Z,102143.00
2023-05-17T01:26:11.500Z,102128.03
2023-05-17T01:28:42.864Z,102137.09
2023-05-17T01:31:12.626Z,102135.53
2023-05-17T01:33:40.825Z,102135.25
2023-05-17T01:36:09.633Z,102134.53
2023-05-17T01:38:37.474Z,102135.41
2023-05-17T01:41:13.730Z,102138.69
2023-05-17T01:43:47.947Z,102138.19
2023-05-17T01:46:22.808Z,102132.69
2023-05-17T01:48:57.183Z,102138.13
2023-05-17T01:51:27.852Z,102142.88
2023-05-17T01:53:58.937Z,102136.41
2023-05-17T01:56:34.696Z,102144.94
2023-05-17T01:59:07.682Z,102134.22
2023-05-17T02:01:37.107Z,102136.25
2023-05-17T02:04:05.225Z,102146.75
2023-05-17T02:06:33.191Z,102139.09
2023-05-17T02:09:02.813Z,102134.38
2023-05-17T02:11:30.715Z,102136.88
2023-05-17T02:13:58.912Z,102141.06
2023-05-17T02:16:28.078Z,102140.88
2023-05-17T02:18:56.017Z,102139.19
2023-05-17T02:21:23.888Z,102141.78
2023-05-17T02:23:51.666Z,102139.13
2023-05-17T02:26:19.461Z,102139.94
2023-05-17T02:28:47.184Z,102142.91
2023-05-17T02:31:14.914Z,102143.66
2023-05-17T02:33:44.060Z,102138.84
2023-05-17T02:36:11.982Z,102148.31
2023-05-17T02:38:40.191Z,102152.03
2023-05-17T02:41:07.916Z,102154.72
2023-05-17T02:43:35.674Z,102148.56
2023-05-17T02:46:03.510Z,102151.69
2023-05-17T02:48:31.456Z,102149.75
2023-05-17T02:51:00.589Z,102148.88
2023-05-17T02:53:28.471Z,102153.25
2023-05-17T02:55:57.956Z,102151.91
2023-05-17T02:58:26.006Z,102151.16
2023-05-17T03:00:53.778Z,102156.19
2023-05-17T03:03:21.749Z,102150.44
2023-05-17T03:05:49.634Z,102151.63
2023-05-17T03:08:18.780Z,102153.59
2023-05-17T03:10:46.578Z,102155.69
2023-05-17T03:13:14.320Z,102149.47
2023-05-17T03:15:42.228Z,102156.00
2023-05-17T03:18:10.086Z,102153.28
2023-05-17T03:20:37.875Z,102152.16
2023-05-17T03:23:05.583Z,102163.47
2023-05-17T03:25:34.700Z,102161.97
2023-05-17T03:28:02.491Z,102153.53
2023-05-17T03:30:30.286Z,102161.38
2023-05-17T03:32:58.117Z,102155.06
2023-05-17T03:35:25.972Z,102157.75
2023-05-17T03:37:53.819Z,102157.56
2023-05-17T03:40:21.565Z,102155.06
2023-05-17T03:42:51.525Z,102161.47
2023-05-17T03:45:19.367Z,102159.44
2023-05-17T03:47:47.142Z,102164.91
2023-05-17T03:50:14.962Z,102163.19
2023-05-17T03:52:42.935Z,102166.03
2023-05-17T03:55:10.958Z,102158.72
2023-05-17T03:57:38.701Z,102171.25
2023-05-17T04:00:11.678Z,102171.63
2023-05-17T04:02:39.700Z,102167.19
2023-05-17T04:05:08.019Z,102167.56
2023-05-17T04:07:35.825Z,102172.69
2023-05-17T04:10:03.820Z,102174.81
2023-05-17T04:12:31.625Z,102179.25
2023-05-17T04:14:59.382Z,102172.78
2023-05-17T04:17:28.671Z,102182.69
2023-05-17T04:19:56.632Z,102180.53
2023-05-17T04:22:24.431Z,102175.81
2023-05-17T04:24:52.257Z,102180.25
2023-05-17T04:27:19.975Z,102189.13
2023-05-17T04:29:47.690Z,102184.16
2023-05-17T04:32:15.440Z,102190.94
2023-05-17T04:34:44.538Z,102192.59
2023-05-17T04:37:12.328Z,102200.59
2023-05-17T04:39:40.137Z,102199.75
2023-05-17T04:42:07.902Z,102205.50
2023-05-17T04:44:35.659Z,102209.94
2023-05-17T04:47:03.937Z,102207.88
2023-05-17T04:49:31.682Z,102211.22
2023-05-17T04:52:00.805Z,102221.53
2023-05-17T04:54:28.545Z,102217.91
2023-05-17T04:56:56.636Z,102216.88
2023-05-17T04:59:24.384Z,102224.28
2023-05-17T05:01:52.268Z,102220.56
2023-05-17T05:04:20.223Z,102221.63
2023-05-17T05:06:48.148Z,102222.16
2023-05-17T05:09:17.359Z,102224.09
2023-05-17T05:11:45.207Z,102219.44
2023-05-17T05:14:12.899Z,102219.94
2023-05-17T05:16:40.645Z,102227.75
2023-05-17T05:19:09.348Z,102228.63
2023-05-17T05:21:37.515Z,102225.94
2023-05-17T05:24:05.435Z,102228.50
2023-05-17T05:26:34.569Z,102239.81
2023-05-17T05:29:02.359Z,102239.78
2023-05-17T05:31:30.755Z,102246.75
2023-05-17T05:33:58.530Z,102237.41
2023-05-17T05:36:26.401Z,102247.72
2023-05-17T05:38:54.811Z,102253.59
2023-05-17T05:41:22.614Z,102247.78
2023-05-17T05:43:51.706Z,102250.50
2023-05-17T05:46:19.504Z,102250.25
2023-05-17T05:48:47.338Z,102249.88
2023-05-17T05:51:15.161Z,102253.66
2023-05-17T05:53:42.882Z,102254.44
2023-05-17T05:56:11.040Z,102253.66
2023-05-17T05:58:39.083Z,102258.34
2023-05-17T06:01:08.235Z,102260.16
2023-05-17T06:03:36.165Z,102263.28
2023-05-17T06:06:03.961Z,102267.41
2023-05-17T06:08:31.697Z,102266.59
2023-05-17T06:10:59.494Z,102268.88
2023-05-17T06:13:27.224Z,102261.78
2023-05-17T06:15:54.994Z,102269.56
2023-05-17T06:18:24.237Z,102265.09
2023-05-17T06:20:52.203Z,102270.63
2023-05-17T06:23:19.989Z,102264.59
2023-05-17T06:25:47.777Z,102259.97
2023-05-17T06:28:15.678Z,102257.88
2023-05-17T06:30:43.529Z,102252.59
2023-05-17T06:33:11.328Z,102254.78
2023-05-17T06:35:54.770Z,102257.22
2023-05-17T06:38:23.749Z,102258.91
2023-05-17T06:40:53.194Z,102264.09
2023-05-17T06:43:21.248Z,102270.25
2023-05-17T06:45:49.091Z,102275.38
2023-05-17T06:48:17.809Z,102282.00
2023-05-17T06:50:47.000Z,102279.06
2023-05-17T06:53:14.986Z,102272.22
2023-05-17T06:55:43.220Z,102279.09
2023-05-17T06:58:11.221Z,102269.41
2023-05-17T07:00:39.164Z,102274.97
2023-05-17T07:03:09.719Z,102271.06
2023-05-17T07:05:37.556Z,102264.13
2023-05-17T07:08:06.929Z,102268.84
2023-05-17T07:10:34.807Z,102276.56
2023-05-17T07:13:02.569Z,102271.50
2023-05-17T07:15:30.565Z,102268.06
2023-05-17T07:17:59.340Z,102273.25
2023-05-17T07:20:27.240Z,102278.16
2023-05-17T07:22:55.175Z,102272.19
2023-05-17T07:25:24.286Z,102278.22
2023-05-17T07:27:52.025Z,102276.66
2023-05-17T07:30:19.774Z,102272.47
2023-05-17T07:32:47.608Z,102275.16
2023-05-17T07:35:15.672Z,102279.34
2023-05-17T07:37:43.722Z,102274.41
2023-05-17T07:40:12.477Z,102267.75
2023-05-17T07:42:41.562Z,102270.13
2023-05-17T07:45:10.656Z,102268.97
2023-05-17T07:47:38.519Z,102265.13
2023-05-17T07:50:07.492Z,102264.19
2023-05-17T07:52:35.272Z,102271.66
2023-05-17T07:55:03.988Z,102274.97
2023-05-17T07:57:31.732Z,102271.88
2023-05-17T08:00:00.845Z,102270.16
2023-05-17T08:02:28.692Z,102273.53
2023-05-17T08:04:56.587Z,102266.78
2023-05-17T08:07:24.403Z,102266.81
2023-05-17T08:09:52.151Z,102258.50
2023-05-17T08:12:19.884Z,102256.56
2023-05-17T08:14:47.824Z,102259.91
2023-05-17T08:17:16.917Z,102260.69
2023-05-17T08:19:44.962Z,102258.06
2023-05-17T08:22:12.760Z,102264.72
2023-05-17T08:24:40.587Z,102259.94
2023-05-17T08:27:08.365Z,102263.13
2023-05-17T08:29:37.636Z,102260.50
2023-05-17T08:32:08.278Z,102257.75
2023-05-17T08:34:37.916Z,102258.16
2023-05-17T08:37:06.199Z,102257.47
2023-05-17T08:39:34.058Z,102262.97
2023-05-17T08:42:02.550Z,102262.06
2023-05-17T08:44:30.396Z,102258.38
2023-05-17T08:47:00.096Z,102251.94
2023-05-17T08:49:30.707Z,102254.38
2023-05-17T08:52:02.007Z,102258.56
2023-05-17T08:54:30.025Z,102253.50
2023-05-17T08:57:02.202Z,102255.13
2023-05-17T08:59:33.954Z,102261.16
2023-05-17T09:02:02.353Z,102265.16
2023-05-17T09:04:31.156Z,102258.44
2023-05-17T09:07:00.295Z,102256.03
2023-05-17T09:09:28.414Z,102249.75
2023-05-17T09:11:56.452Z,102256.78
2023-05-17T09:14:24.164Z,102256.44
2023-05-17T09:16:58.391Z,102251.59
2023-05-17T09:19:26.213Z,102251.88
2023-05-17T09:21:55.380Z,102256.44
2023-05-17T09:24:31.014Z,102253.97
2023-05-17T09:27:03.286Z,102248.22
2023-05-17T09:29:32.462Z,102245.75
2023-05-17T09:32:13.965Z,102245.63
2023-05-17T09:34:42.327Z,102242.19
2023-05-17T09:37:17.747Z,102246.47
2023-05-17T09:39:48.584Z,102240.13
2023-05-17T09:42:17.718Z,102233.72
2023-05-17T09:44:50.964Z,102241.28
2023-05-17T09:47:25.371Z,102242.66
2023-05-17T09:49:53.692Z,102238.75
2023-05-17T09:52:22.308Z,102234.56
2023-05-17T09:54:55.287Z,102236.28
2023-05-17T09:57:23.719Z,102227.94
2023-05-17T09:59:53.104Z,102228.94
2023-05-17T10:02:27.792Z,102233.69
2023-05-17T10:04:59.248Z,102233.50
2023-05-17T10:07:28.194Z,102228.09
2023-05-17T10:09:58.450Z,102225.00
2023-05-17T10:12:29.999Z,102233.19
2023-05-17T10:14:59.998Z,102224.94
2023-05-17T10:17:29.832Z,102222.56
2023-05-17T10:19:58.866Z,102231.47
2023-05-17T10:22:29.189Z,102225.31
2023-05-17T10:24:59.118Z,102217.34
2023-05-17T10:27:27.851Z,102208.22
2023-05-17T10:29:55.902Z,102217.91
2023-05-17T10:32:27.092Z,102216.13
2023-05-17T10:35:09.158Z,102216.78
2023-05-17T10:37:40.245Z,102219.50
2023-05-17T10:40:13.776Z,102211.78
2023-05-17T10:42:45.641Z,102215.41
2023-05-17T10:45:14.920Z,102214.47
2023-05-17T10:47:46.010Z,102208.56
2023-05-17T10:50:15.233Z,102205.44
2023-05-17T10:52:48.509Z,102211.91
2023-05-17T10:55:21.865Z,102208.09
2023-05-17T10:58:17.020Z,102203.75
2023-05-17T11:00:47.171Z,102198.03
2023-05-17T11:03:18.089Z,102203.28
2023-05-17T11:06:12.698Z,102193.78
2023-05-17T11:08:48.083Z,102194.75
2023-05-17T11:11:20.700Z,102194.44
2023-05-17T11:13:53.753Z,102195.81
2023-05-17T11:16:26.205Z,102196.47
2023-05-17T11:18:55.989Z,102206.63
2023-05-17T11:21:24.087Z,102196.88
2023-05-17T11:23:57.327Z,102196.06
2023-05-17T11:26:34.065Z,102195.72
2023-05-17T11:29:04.132Z,102191.44
2023-05-17T11:31:33.471Z,102192.31
2023-05-17T11:34:01.664Z,102181.97
2023-05-17T11:36:29.483Z,102185.63
2023-05-17T11:39:20.624Z,102175.34
2023-05-17T11:41:53.911Z,102181.66
2023-05-17T11:44:28.716Z,102178.88
2023-05-17T11:47:04.102Z,102174.69
2023-05-17T11:49:36.123Z,102179.94
2023-05-17T11:52:05.102Z,102170.72
2023-05-17T11:54:33.118Z,102177.53
2023-05-17T11:57:03.656Z,102158.19
2023-05-17T11:59:38.407Z,102167.84
2023-05-17T12:02:06.288Z,102157.25
2023-05-17T12:04:37.696Z,102161.91
2023-05-17T12:07:06.284Z,102154.31
2023-05-17T12:09:34.881Z,102146.75
2023-05-17T12:12:05.859Z,102151.03
2023-05-17T12:14:33.888Z,102151.06
2023-05-17T12:17:04.263Z,102144.63
2023-05-17T12:19:32.932Z,102145.06
2023-05-17T12:22:08.680Z,102141.69
2023-05-17T12:24:40.311Z,102149.72
2023-05-17T12:27:09.701Z,102147.88
2023-05-17T12:29:37.451Z,102154.09
2023-05-17T12:32:07.203Z,102149.81
2023-05-17T12:34:35.417Z,102151.50
2023-05-17T12:37:03.868Z,102143.56
2023-05-17T12:39:32.595Z,102146.50
2023-05-17T12:42:02.005Z,102140.72
2023-05-17T12:44:31.143Z,102144.06
2023-05-17T12:46:58.999Z,102130.44
2023-05-17T12:49:26.847Z,102142.16
2023-05-17T12:51:54.619Z,102140.84
2023-05-17T12:54:29.734Z,102139.69
2023-05-17T12:56:58.202Z,102125.84
2023-05-17T12:59:26.381Z,102127.72
2023-05-17T13:01:56.688Z,102121.41
2023-05-17T13:04:31.658Z,102130.88
2023-05-17T13:07:01.699Z,102123.50
2023-05-17T13:09:32.024Z,102124.16
2023-05-17T13:12:01.919Z,102126.78
2023-05-17T13:14:38.034Z,102122.16
2023-05-17T13:17:09.068Z,102125.22
2023-05-17T13:19:37.417Z,102121.09
2023-05-17T13:22:05.905Z,102129.78
2023-05-17T13:24:35.997Z,102109.19
2023-05-17T13:27:05.006Z,102119.38
2023-05-17T13:29:39.659Z,102109.78
2023-05-17T13:32:11.550Z,102114.81
2023-05-17T13:34:39.641Z,102115.44
2023-05-17T13:37:11.101Z,102104.25
2023-05-17T13:39:40.246Z,102113.19
2023-05-17T13:42:08.423Z,102103.34
2023-05-17T13:44:36.300Z,102105.84
2023-05-17T13:47:04.212Z,102101.03
2023-05-17T13:49:33.395Z,102099.78
2023-05-17T13:52:01.419Z,102100.41
2023-05-17T13:54:29.218Z,102095.97
2023-05-17T13:56:57.447Z,102096.78
2023-05-17T13:59:25.269Z,102097.66
2023-05-17T14:01:53.104Z,102087.47
2023-05-17T14:04:21.337Z,102087.13
2023-05-17T14:06:54.121Z,102083.72
2023-05-17T14:09:22.925Z,102085.56
2023-05-17T14:11:50.977Z,102084.06
2023-05-17T14:14:18.773Z,102076.84
2023-05-17T14:16:46.584Z,102071.72
2023-05-17T14:19:14.352Z,102078.53
2023-05-17T14:21:42.121Z,102076.19
2023-05-17T14:24:11.390Z,102070.28
2023-05-17T14:26:39.190Z,102077.00
2023-05-17T14:29:07.570Z,102072.88
2023-05-17T14:31:35.617Z,102075.44
2023-05-17T14:34:03.899Z,102079.50
2023-05-17T14:36:31.820Z,102076.13
2023-05-17T14:38:59.592Z,102069.56
2023-05-17T14:41:28.756Z,102076.66
2023-05-17T14:43:56.506Z,102065.34
2023-05-17T14:46:24.839Z,102070.56
2023-05-17T14:48:53.003Z,102065.09
2023-05-17T14:51:20.725Z,102069.81
2023-05-17T14:53:48.578Z,102070.03
2023-05-17T14:56:16.812Z,102072.00
2023-05-17T14:58:46.738Z,102073.16
2023-05-17T15:01:15.318Z,102077.91
2023-05-17T15:03:43.172Z,102069.78
2023-05-17T15:06:12.016Z,102075.34
2023-05-17T15:08:40.729Z,102079.97
2023-05-17T15:11:08.484Z,102082.03
2023-05-17T15:13:36.284Z,102079.09
2023-05-17T15:16:05.996Z,102085.91
2023-05-17T15:18:33.816Z,102080.72
2023-05-17T15:21:03.050Z,102075.00
2023-05-17T15:23:30.879Z,102069.22
2023-05-17T15:25:58.684Z,102076.97
2023-05-17T15:28:26.540Z,102074.47
2023-05-17T15:31:01.572Z,102076.66
2023-05-17T15:33:32.158Z,102077.84
2023-05-17T15:36:00.062Z,102087.41
2023-05-17T15:38:27.890Z,102080.16
2023-05-17T15:41:04.968Z,102085.59
2023-05-17T15:43:33.559Z,102086.72
2023-05-17T15:46:01.860Z,102092.16
2023-05-17T15:48:31.143Z,102093.50
2023-05-17T15:50:59.113Z,102089.19
2023-05-17T15:53:27.701Z,102087.47
2023-05-17T15:55:55.880Z,102085.81
2023-05-17T15:58:27.742Z,102084.25
2023-05-17T16:00:55.909Z,102083.81
2023-05-17T16:03:23.741Z,102080.97
2023-05-17T16:05:52.914Z,102090.28
2023-05-17T16:08:21.353Z,102086.50
2023-05-17T16:10:49.105Z,102089.41
2023-05-17T16:13:17.475Z,102089.84
2023-05-17T16:15:45.303Z,102088.16
2023-05-17T16:18:15.022Z,102082.31
2023-05-17T16:20:43.037Z,102090.28
2023-05-17T16:23:12.810Z,102088.69
2023-05-17T16:25:41.593Z,102082.66
2023-05-17T16:28:09.373Z,102079.59
2023-05-17T16:30:37.530Z,102078.19
2023-05-17T16:33:08.170Z,102075.19
2023-05-17T16:35:36.460Z,102081.75
2023-05-17T16:38:04.196Z,102076.97
2023-05-17T16:40:33.981Z,102072.25
2023-05-17T16:43:02.119Z,102070.31
2023-05-17T16:45:30.124Z,102077.78
2023-05-17T16:47:58.157Z,102073.44
2023-05-17T16:50:26.065Z,102070.22
2023-05-17T16:52:53.849Z,102075.59
2023-05-17T16:55:21.684Z,102081.13
2023-05-17T16:57:51.381Z,102077.88
2023-05-17T17:00:20.184Z,102077.38
2023-05-17T17:02:48.024Z,102069.75
2023-05-17T17:05:16.045Z,102072.72
2023-05-17T17:07:45.842Z,102078.00
2023-05-17T17:10:13.864Z,102072.69
2023-05-17T17:12:41.668Z,102077.81
2023-05-17T17:15:11.714Z,102081.31
2023-05-17T17:17:39.637Z,102078.69
2023-05-17T17:20:09.314Z,102077.75
2023-05-17T17:22:37.045Z,102075.13
2023-05-17T17:25:05.228Z,102083.75
2023-05-17T17:27:33.003Z,102083.63
2023-05-17T17:30:00.917Z,102083.59
2023-05-17T17:32:30.196Z,102074.53
2023-05-17T17:34:58.024Z,102080.97
2023-05-17T17:37:26.093Z,102075.84
2023-05-17T17:39:53.837Z,102082.41
2023-05-17T17:42:21.591Z,102075.19
2023-05-17T17:44:49.308Z,102074.44
2023-05-17T17:47:17.246Z,102081.25
2023-05-17T17:49:46.523Z,102082.34
2023-05-17T17:52:14.230Z,102075.41
2023-05-17T17:54:44.065Z,102070.56
2023-05-17T17:57:13.647Z,102077.53
2023-05-17T17:59:41.384Z,102080.88
2023-05-17T18:02:09.178Z,102081.69
2023-05-17T18:04:37.112Z,102073.41
2023-05-17T18:07:06.750Z,102067.59
2023-05-17T18:09:34.538Z,102075.75
2023-05-17T18:12:02.325Z,102069.13
2023-05-17T18:14:30.035Z,102088.25
2023-05-17T18:16:57.872Z,102081.41
2023-05-17T18:19:25.750Z,102079.78
2023-05-17T18:21:53.588Z,102084.66
2023-05-17T18:24:22.693Z,102075.03
2023-05-17T18:26:50.394Z,102085.47
2023-05-17T18:29:18.126Z,102082.44
2023-05-17T18:31:47.425Z,102079.66
2023-05-17T18:34:15.604Z,102086.59
2023-05-17T18:36:43.393Z,102081.75
2023-05-17T18:39:11.187Z,102074.63
2023-05-17T18:41:40.314Z,102082.13
2023-05-17T18:44:08.060Z,102081.94
2023-05-17T18:46:35.975Z,102082.53
2023-05-17T18:49:04.230Z,102082.91
2023-05-17T18:51:32.604Z,102083.13
2023-05-17T18:54:00.361Z,102083.50
2023-05-17T18:56:28.685Z,102085.47
2023-05-17T18:58:58.437Z,102085.44
2023-05-17T19:01:26.868Z,102084.25
2023-05-17T19:03:56.337Z,102084.03
2023-05-17T19:06:25.177Z,102079.13
2023-05-17T19:08:52.993Z,102090.63
2023-05-17T19:11:21.500Z,102101.06
2023-05-17T19:13:49.347Z,102093.13
2023-05-17T19:16:18.532Z,102096.09
2023-05-17T19:18:46.381Z,102088.69
2023-05-17T19:21:14.221Z,102093.03
2023-05-17T19:23:42.005Z,102099.84
2023-05-17T19:26:09.743Z,102106.69
2023-05-17T19:28:37.497Z,102112.16
2023-05-17T19:31:05.383Z,102110.66
2023-05-17T19:33:34.626Z,102120.97
2023-05-17T19:36:02.514Z,102115.53
2023-05-17T19:38:31.279Z,102118.34
2023-05-17T19:40:59.079Z,102122.03
2023-05-17T19:43:27.173Z,102120.56
2023-05-17T19:45:55.015Z,102116.63
2023-05-17T19:48:24.061Z,102124.72
2023-05-17T19:50:56.131Z,102120.00
2023-05-17T19:53:24.688Z,102122.00
2023-05-17T19:55:52.492Z,102124.56
2023-05-17T19:58:20.270Z,102126.22
2023-05-17T20:00:48.181Z,102130.66
2023-05-17T20:03:16.165Z,102133.50
2023-05-17T20:05:44.089Z,102129.38
2023-05-17T20:08:13.179Z,102137.13
2023-05-17T20:10:41.025Z,102139.06
2023-05-17T20:13:09.026Z,102146.00
2023-05-17T20:15:36.780Z,102148.00
2023-05-17T20:18:06.143Z,102146.38
2023-05-17T20:20:34.786Z,102151.00
2023-05-17T20:23:03.687Z,102152.06
2023-05-17T20:25:33.462Z,102157.84
2023-05-17T20:28:01.836Z,102159.63
2023-05-17T20:30:30.615Z,102155.97
2023-05-17T20:32:59.791Z,102155.75
2023-05-17T20:35:28.457Z,102148.25
2023-05-17T20:37:56.319Z,102158.38
2023-05-17T20:40:24.177Z,102154.09
2023-05-17T20:42:53.946Z,102164.41
2023-05-17T20:45:22.740Z,102166.75
2023-05-17T20:47:51.350Z,102170.06
2023-05-17T20:50:21.407Z,102166.41
2023-05-17T20:52:49.387Z,102168.81
2023-05-17T20:55:17.190Z,102170.19
2023-05-17T20:57:44.976Z,102175.84
2023-05-17T21:00:16.983Z,102170.47
2023-05-17T21:02:44.963Z,102176.13
2023-05-17T21:05:13.151Z,102173.16
2023-05-17T21:07:40.940Z,102175.97
2023-05-17T21:10:10.135Z,102174.53
2023-05-17T21:12:37.843Z,102167.16
2023-05-17T21:15:30.766Z,102173.59
2023-05-17T21:17:55.453Z,102167.41
2023-05-17T21:20:24.742Z,102167.81
2023-05-17T21:22:52.803Z,102173.66
2023-05-17T21:25:21.006Z,102172.63
2023-05-17T21:27:48.719Z,102170.75
2023-05-17T21:30:16.530Z,102170.63
2023-05-17T21:32:44.336Z,102172.03
2023-05-17T21:35:13.532Z,102169.97
2023-05-17T21:37:42.172Z,102171.19
2023-05-17T21:40:10.708Z,102173.06
2023-05-17T21:42:38.558Z,102170.63
2023-05-17T21:45:07.618Z,102172.09
2023-05-17T21:47:36.211Z,102171.56
2023-05-17T21:50:04.280Z,102163.56
2023-05-17T21:52:33.563Z,102166.22
2023-05-17T21:55:01.340Z,102167.47
2023-05-17T21:57:29.064Z,102169.06
2023-05-17T21:59:56.922Z,102175.34
2023-05-17T22:02:24.770Z,102178.81
2023-05-17T22:04:52.558Z,102175.53
2023-05-17T22:07:20.539Z,102174.94
2023-05-17T22:09:49.676Z,102170.75
2023-05-17T22:12:17.431Z,102168.47
2023-05-17T22:14:45.634Z,102167.78
2023-05-17T22:17:13.483Z,102166.25
2023-05-17T22:19:41.808Z,102166.72
2023-05-17T22:22:09.751Z,102163.41
2023-05-17T22:24:37.587Z,102178.59
2023-05-17T22:27:07.192Z,102175.25
2023-05-17T22:29:34.985Z,102174.75
2023-05-17T22:32:02.764Z,102181.94
2023-05-17T22:34:30.635Z,102172.75
2023-05-17T22:36:58.374Z,102163.69
2023-05-17T22:39:26.119Z,102167.25
2023-05-17T22:41:53.869Z,102177.22
2023-05-17T22:44:23.117Z,102184.28
2023-05-17T22:46:51.058Z,102176.13
2023-05-17T22:49:20.204Z,102187.09
2023-05-17T22:51:47.994Z,102192.38
2023-05-17T22:54:15.754Z,102182.53
2023-05-17T22:56:43.583Z,102184.66
2023-05-17T22:59:11.621Z,102176.81
2023-05-17T23:01:40.810Z,102182.47
2023-05-17T23:04:08.636Z,102178.78
2023-05-17T23:06:36.458Z,102176.25
2023-05-17T23:09:06.030Z,102186.50
2023-05-17T23:11:34.814Z,102187.53
2023-05-17T23:14:02.678Z,102188.34
2023-05-17T23:16:30.498Z,102190.63
2023-05-17T23:19:00.153Z,102186.22
2023-05-17T23:21:28.061Z,102188.13
2023-05-17T23:23:56.008Z,102184.44
2023-05-17T23:26:23.779Z,102174.91
2023-05-17T23:28:53.695Z,102184.06
2023-05-17T23:31:22.248Z,102169.09
2023-05-17T23:33:50.177Z,102174.28
2023-05-17T23:36:21.607Z,102166.69
2023-05-17T23:38:49.772Z,102174.72
2023-05-17T23:41:19.698Z,102174.78
2023-05-17T23:43:47.715Z,102168.94
2023-05-17T23:46:19.809Z,102165.84
2023-05-17T23:48:50.583Z,102168.25
2023-05-17T23:51:21.181Z,102169.88
2023-05-17T23:53:49.869Z,102166.25
2023-05-17T23:56:18.270Z,102167.50
2023-05-17T23:58:46.429Z,102163.44
